Time,TemperatureF,DewpointF,PressureIn,WindDirection,WindDirectionDegrees,WindSpeedMPH,WindSpeedGustMPH,Humidity,HourlyPrecipIn,Conditions,Clouds,dailyrainin,SoftwareType,DateUTC
2013-01-19 00:00:00,38.8,28.1,30.49,East,100,1.0,4.0,65,0.00,,SKC,0.01,VWS V14.01,2013-01-19 05:00:00,
2013-01-19 00:01:00,38.8,28.1,30.49,East,100,2.0,4.0,65,0.00,,SKC,0.01,VWS V14.01,2013-01-19 05:01:00,
2013-01-19 00:06:00,38.9,27.8,30.49,East,98,2.0,6.0,64,0.00,,SKC,0.00,VWS V14.01,2013-01-19 05:06:00,
2013-01-19 00:11:00,38.9,27.8,30.49,ENE,78,3.0,6.0,64,0.00,,SKC,0.00,VWS V14.01,2013-01-19 05:11:00,
2013-01-19 00:16:00,39.0,27.9,30.49,ESE,121,2.0,6.0,64,0.00,,SKC,0.00,VWS V14.01,2013-01-19 05:16:00,
2013-01-19 00:21:00,39.0,27.9,30.49,East,100,1.0,9.0,64,0.00,,SKC,0.00,VWS V14.01,2013-01-19 05:21:00,
2013-01-19 00:26:00,38.9,27.8,30.49,ESE,110,1.0,9.0,64,0.00,,SKC,0.00,VWS V14.01,2013-01-19 05:26:00,
2013-01-19 00:31:00,38.9,27.8,30.49,ESE,109,1.0,10.0,64,0.00,,SKC,0.00,VWS V14.01,2013-01-19 05:31:00,
2013-01-19 00:36:00,38.8,27.7,30.49,ESE,104,0.0,10.0,64,0.00,,SKC,0.00,VWS V14.01,2013-01-19 05:36:00,
2013-01-19 00:41:00,38.8,27.7,30.49,East,94,3.0,10.0,64,0.00,,SKC,0.00,VWS V14.01,2013-01-19 05:41:00,
2013-01-19 00:46:00,38.8,27.7,30.49,ENE,67,1.0,10.0,64,0.00,,SKC,0.00,VWS V14.01,2013-01-19 05:46:00,
2013-01-19 00:51:00,38.6,27.5,30.49,ESE,115,3.0,10.0,64,0.00,,SKC,0.00,VWS V14.01,2013-01-19 05:51:00,
2013-01-19 00:56:00,38.7,27.6,30.49,SE,126,3.0,10.0,64,0.00,,SKC,0.00,VWS V14.01,2013-01-19 05:56:00,
2013-01-19 01:00:00,37.5,26.8,30.49,East,96,0.0,10.0,65,0.00,,SKC,0.00,VWS V14.01,2013-01-19 06:00:00,
2013-01-19 01:01:00,38.5,27.8,30.49,ESE,113,1.0,1.0,65,0.00,,SKC,0.00,VWS V14.01,2013-01-19 06:01:00,
2013-01-19 01:06:00,38.4,27.7,30.48,ESE,108,3.0,9.0,65,0.00,,SKC,0.00,VWS V14.01,2013-01-19 06:06:00,
2013-01-19 01:11:00,38.4,27.7,30.49,ESE,107,2.0,9.0,65,0.00,,SKC,0.00,VWS V14.01,2013-01-19 06:11:00,
2013-01-19 01:16:00,38.4,27.3,30.49,ESE,111,6.0,9.0,64,0.00,,SKC,0.00,VWS V14.01,2013-01-19 06:16:00,
2013-01-19 01:21:00,38.2,27.5,30.49,East,93,1.0,9.0,65,0.00,,SKC,0.00,VWS V14.01,2013-01-19 06:21:00,
2013-01-19 01:26:00,38.2,27.5,30.49,ESE,111,3.0,9.0,65,0.00,,SKC,0.00,VWS V14.01,2013-01-19 06:26:00,
2013-01-19 01:31:00,38.1,27.4,30.49,ENE,77,1.0,9.0,65,0.00,,SKC,0.00,VWS V14.01,2013-01-19 06:31:00,
2013-01-19 01:36:00,38.0,26.9,30.49,ESE,105,5.0,10.0,64,0.00,,SKC,0.00,VWS V14.01,2013-01-19 06:36:00,
2013-01-19 01:41:00,38.0,27.3,30.49,ESE,105,2.0,10.0,65,0.00,,SKC,0.00,VWS V14.01,2013-01-19 06:41:00,
2013-01-19 01:46:00,37.8,27.1,30.49,ENE,71,1.0,10.0,65,0.00,,SKC,0.00,VWS V14.01,2013-01-19 06:46:00,
2013-01-19 01:51:00,37.7,27.0,30.49,East,88,1.0,10.0,65,0.00,,SKC,0.00,VWS V14.01,2013-01-19 06:51:00,
2013-01-19 01:56:00,37.6,26.9,30.49,ENE,74,0.0,10.0,65,0.00,,SKC,0.00,VWS V14.01,2013-01-19 06:56:00,
2013-01-19 02:00:00,36.9,26.6,30.48,East,90,1.0,9.0,66,0.00,,SKC,0.00,VWS V14.01,2013-01-19 07:00:00,
2013-01-19 02:01:00,37.5,26.8,30.48,East,91,1.0,2.0,65,0.00,,SKC,0.00,VWS V14.01,2013-01-19 07:01:00,
2013-01-19 02:06:00,37.5,26.8,30.48,East,95,1.0,6.0,65,0.00,,SKC,0.00,VWS V14.01,2013-01-19 07:06:00,
2013-01-19 02:11:00,37.4,26.7,30.49,ESE,119,2.0,6.0,65,0.00,,SKC,0.00,VWS V14.01,2013-01-19 07:11:00,
2013-01-19 02:16:00,37.4,26.7,30.48,NE,41,0.0,6.0,65,0.00,,SKC,0.00,VWS V14.01,2013-01-19 07:16:00,
2013-01-19 02:21:00,37.3,26.6,30.48,SE,128,1.0,6.0,65,0.00,,SKC,0.00,VWS V14.01,2013-01-19 07:21:00,
2013-01-19 02:26:00,37.4,26.7,30.48,ESE,113,3.0,9.0,65,0.00,,SKC,0.00,VWS V14.01,2013-01-19 07:26:00,
2013-01-19 02:31:00,37.5,26.5,30.48,ESE,109,3.0,9.0,64,0.00,,SKC,0.00,VWS V14.01,2013-01-19 07:31:00,
2013-01-19 02:36:00,37.5,26.5,30.48,ESE,103,6.0,9.0,64,0.00,,SKC,0.00,VWS V14.01,2013-01-19 07:36:00,
2013-01-19 02:41:00,37.6,26.5,30.48,East,88,3.0,9.0,64,0.00,,SKC,0.00,VWS V14.01,2013-01-19 07:41:00,
2013-01-19 02:46:00,37.3,26.3,30.48,ESE,109,2.0,9.0,64,0.00,,SKC,0.00,VWS V14.01,2013-01-19 07:46:00,
2013-01-19 02:51:00,37.1,26.4,30.48,East,88,2.0,9.0,65,0.00,,SKC,0.00,VWS V14.01,2013-01-19 07:51:00,
2013-01-19 02:56:00,37.1,26.4,30.48,ESE,103,3.0,9.0,65,0.00,,SKC,0.00,VWS V14.01,2013-01-19 07:56:00,
2013-01-19 03:00:00,35.2,26.8,30.46,ENE,78,1.0,9.0,71,0.00,,SKC,0.00,VWS V14.01,2013-01-19 08:00:00,
2013-01-19 03:01:00,36.8,26.5,30.48,East,89,2.0,3.0,66,0.00,,SKC,0.00,VWS V14.01,2013-01-19 08:01:00,
2013-01-19 03:06:00,36.4,26.5,30.48,East,85,1.0,6.0,67,0.00,,SKC,0.00,VWS V14.01,2013-01-19 08:06:00,
2013-01-19 03:11:00,36.1,26.9,30.48,East,86,1.0,6.0,69,0.00,,SKC,0.00,VWS V14.01,2013-01-19 08:11:00,
2013-01-19 03:16:00,35.9,26.7,30.47,East,85,3.0,6.0,69,0.00,,SKC,0.00,VWS V14.01,2013-01-19 08:16:00,
2013-01-19 03:21:00,35.5,26.7,30.47,East,85,1.0,6.0,70,0.00,,SKC,0.00,VWS V14.01,2013-01-19 08:21:00,
2013-01-19 03:26:00,35.3,26.5,30.47,East,85,1.0,6.0,70,0.00,,SKC,0.00,VWS V14.01,2013-01-19 08:26:00,
2013-01-19 03:31:00,35.1,26.7,30.47,East,85,1.0,6.0,71,0.00,,SKC,0.00,VWS V14.01,2013-01-19 08:31:00,
2013-01-19 03:36:00,35.3,26.9,30.47,East,95,1.0,6.0,71,0.00,,SKC,0.00,VWS V14.01,2013-01-19 08:36:00,
2013-01-19 03:41:00,35.3,26.5,30.47,East,81,1.0,6.0,70,0.00,,SKC,0.00,VWS V14.01,2013-01-19 08:41:00,
2013-01-19 03:46:00,35.3,26.9,30.47,ENE,74,0.0,6.0,71,0.00,,SKC,0.00,VWS V14.01,2013-01-19 08:46:00,
2013-01-19 03:51:00,35.3,26.9,30.47,ENE,77,0.0,9.0,71,0.00,,SKC,0.00,VWS V14.01,2013-01-19 08:51:00,
2013-01-19 03:56:00,35.3,26.9,30.46,ENE,78,0.0,9.0,71,0.00,,SKC,0.00,VWS V14.01,2013-01-19 08:56:00,
2013-01-19 04:00:00,34.4,26.7,30.44,ENE,77,0.0,3.0,73,0.00,,SKC,0.00,VWS V14.01,2013-01-19 09:00:00,
2013-01-19 04:01:00,35.2,26.8,30.46,ENE,78,1.0,2.0,71,0.00,,SKC,0.00,VWS V14.01,2013-01-19 09:01:00,
2013-01-19 04:06:00,35.2,26.8,30.45,ENE,77,1.0,3.0,71,0.00,,SKC,0.00,VWS V14.01,2013-01-19 09:06:00,
2013-01-19 04:11:00,35.0,26.6,30.45,ENE,77,0.0,3.0,71,0.00,,SKC,0.00,VWS V14.01,2013-01-19 09:11:00,
2013-01-19 04:16:00,34.5,26.1,30.45,ENE,77,1.0,3.0,71,0.00,,SKC,0.00,VWS V14.01,2013-01-19 09:16:00,
2013-01-19 04:21:00,34.4,26.3,30.45,ENE,77,0.0,3.0,72,0.00,,SKC,0.00,VWS V14.01,2013-01-19 09:21:00,
2013-01-19 04:26:00,34.4,26.7,30.45,ENE,77,0.0,3.0,73,0.00,,SKC,0.00,VWS V14.01,2013-01-19 09:26:00,
2013-01-19 04:31:00,34.4,26.3,30.45,ENE,77,0.0,3.0,72,0.00,,SKC,0.00,VWS V14.01,2013-01-19 09:31:00,
2013-01-19 04:36:00,34.4,26.3,30.45,ENE,77,1.0,3.0,72,0.00,,SKC,0.00,VWS V14.01,2013-01-19 09:36:00,
2013-01-19 04:41:00,34.4,26.7,30.44,ENE,77,1.0,3.0,73,0.00,,SKC,0.00,VWS V14.01,2013-01-19 09:41:00,
2013-01-19 04:46:00,34.2,26.5,30.44,ENE,77,0.0,3.0,73,0.00,,SKC,0.00,VWS V14.01,2013-01-19 09:46:00,
2013-01-19 04:51:00,34.3,26.6,30.44,ENE,77,0.0,3.0,73,0.00,,SKC,0.00,VWS V14.01,2013-01-19 09:51:00,
2013-01-19 04:56:00,34.4,26.7,30.44,ENE,77,1.0,3.0,73,0.00,,SKC,0.00,VWS V14.01,2013-01-19 09:56:00,
2013-01-19 05:00:00,29.4,25.2,30.45,ENE,59,0.0,2.0,84,0.00,,SKC,0.00,VWS V14.01,2013-01-19 10:00:00,
2013-01-19 05:01:00,34.4,26.7,30.44,ENE,59,1.0,2.0,73,0.00,,SKC,0.00,VWS V14.01,2013-01-19 10:01:00,
2013-01-19 05:06:00,34.4,26.3,30.44,ENE,59,0.0,2.0,72,0.00,,SKC,0.00,VWS V14.01,2013-01-19 10:06:00,
2013-01-19 05:11:00,34.4,26.3,30.44,ENE,59,0.0,2.0,72,0.00,,SKC,0.00,VWS V14.01,2013-01-19 10:11:00,
2013-01-19 05:16:00,34.2,26.1,30.44,ENE,59,0.0,2.0,72,0.00,,SKC,0.00,VWS V14.01,2013-01-19 10:16:00,
2013-01-19 05:21:00,33.6,26.2,30.44,ENE,59,0.0,2.0,74,0.00,,SKC,0.00,VWS V14.01,2013-01-19 10:21:00,
2013-01-19 05:26:00,33.2,26.1,30.44,ENE,59,0.0,2.0,75,0.00,,SKC,0.00,VWS V14.01,2013-01-19 10:26:00,
2013-01-19 05:31:00,32.6,26.2,30.44,ENE,59,0.0,2.0,77,0.00,,SKC,0.00,VWS V14.01,2013-01-19 10:31:00,
2013-01-19 05:36:00,31.9,25.8,30.44,ENE,59,0.0,2.0,78,0.00,,SKC,0.00,VWS V14.01,2013-01-19 10:36:00,
2013-01-19 05:41:00,31.4,25.6,30.44,ENE,59,0.0,2.0,79,0.00,,SKC,0.00,VWS V14.01,2013-01-19 10:41:00,
2013-01-19 05:46:00,30.9,25.8,30.44,ENE,59,0.0,2.0,81,0.00,,SKC,0.00,VWS V14.01,2013-01-19 10:46:00,
2013-01-19 05:51:00,30.2,25.4,30.45,ENE,59,0.0,2.0,82,0.00,,SKC,0.00,VWS V14.01,2013-01-19 10:51:00,
2013-01-19 05:56:00,29.6,25.1,30.45,ENE,59,0.0,2.0,83,0.00,,SKC,0.00,VWS V14.01,2013-01-19 10:56:00,
2013-01-19 06:00:00,31.0,26.5,30.45,ENE,59,1.0,2.0,83,0.00,,SKC,0.00,VWS V14.01,2013-01-19 11:00:00,
2013-01-19 06:01:00,29.3,25.1,30.45,ENE,59,0.0,0.0,84,0.00,,SKC,0.00,VWS V14.01,2013-01-19 11:01:00,
2013-01-19 06:06:00,29.1,24.9,30.45,ENE,59,0.0,0.0,84,0.00,,SKC,0.00,VWS V14.01,2013-01-19 11:06:00,
2013-01-19 06:11:00,29.0,25.1,30.45,ENE,59,0.0,0.0,85,0.00,,SKC,0.00,VWS V14.01,2013-01-19 11:11:00,
2013-01-19 07:00:00,28.5,25.1,30.46,ENE,59,0.0,1.0,87,0.00,,-RA,0.00,VWS V14.01,2013-01-19 12:00:00,
2013-01-19 07:48:00,28.5,24.6,30.46,ENE,59,1.0,1.0,85,0.00,,SKC,0.00,VWS V14.01,2013-01-19 12:48:00,
2013-01-19 07:53:00,28.3,24.7,30.46,ENE,59,0.0,1.0,86,0.00,,SKC,0.00,VWS V14.01,2013-01-19 12:53:00,
2013-01-19 07:58:00,28.4,25.0,30.46,ENE,59,0.0,1.0,87,0.00,,SKC,0.00,VWS V14.01,2013-01-19 12:58:00,
2013-01-19 08:00:00,33.8,28.6,30.47,ENE,67,4.0,5.0,81,0.00,,SKC,0.00,VWS V14.01,2013-01-19 13:00:00,
2013-01-19 08:03:00,28.7,25.3,30.47,ENE,59,0.0,0.0,87,0.00,,SKC,0.00,VWS V14.01,2013-01-19 13:03:00,
2013-01-19 08:08:00,28.9,25.8,30.47,ENE,59,0.0,1.0,88,0.00,,SKC,0.00,VWS V14.01,2013-01-19 13:08:00,
2013-01-19 08:13:00,29.1,26.0,30.47,ENE,59,0.0,1.0,88,0.00,,SKC,0.00,VWS V14.01,2013-01-19 13:13:00,
2013-01-19 08:18:00,29.4,26.3,30.47,ENE,59,0.0,1.0,88,0.00,,SKC,0.00,VWS V14.01,2013-01-19 13:18:00,
2013-01-19 08:23:00,29.7,26.6,30.47,ENE,59,0.0,1.0,88,0.00,,SKC,0.00,VWS V14.01,2013-01-19 13:23:00,
2013-01-19 08:28:00,29.9,26.8,30.47,ENE,59,0.0,1.0,88,0.00,,SKC,0.00,VWS V14.01,2013-01-19 13:28:00,
2013-01-19 08:33:00,30.2,27.1,30.47,ENE,59,0.0,2.0,88,0.00,,SKC,0.00,VWS V14.01,2013-01-19 13:33:00,
2013-01-19 08:38:00,30.6,27.5,30.47,ENE,59,0.0,2.0,88,0.00,,SKC,0.00,VWS V14.01,2013-01-19 13:38:00,
2013-01-19 08:43:00,31.4,28.3,30.47,ENE,59,1.0,2.0,88,0.00,,SKC,0.00,VWS V14.01,2013-01-19 13:43:00,
2013-01-19 08:48:00,32.0,28.9,30.47,ENE,59,2.0,3.0,88,0.00,,SKC,0.00,VWS V14.01,2013-01-19 13:48:00,
2013-01-19 08:53:00,32.9,29.2,30.47,NE,53,2.0,4.0,86,0.00,,SKC,0.00,VWS V14.01,2013-01-19 13:53:00,
2013-01-19 08:58:00,33.6,29.0,30.47,ENE,64,4.0,5.0,83,0.00,,SKC,0.00,VWS V14.01,2013-01-19 13:58:00,
2013-01-19 09:00:00,41.6,32.9,30.47,ENE,70,0.0,7.0,71,0.00,,SKC,0.00,VWS V14.01,2013-01-19 14:00:00,
2013-01-19 09:03:00,34.0,28.5,30.47,ENE,59,4.0,5.0,80,0.00,,SKC,0.00,VWS V14.01,2013-01-19 14:03:00,
2013-01-19 09:08:00,34.4,28.6,30.47,ENE,62,4.0,7.0,79,0.00,,SKC,0.00,VWS V14.01,2013-01-19 14:08:00,
2013-01-19 09:13:00,34.8,28.6,30.47,ENE,61,1.0,7.0,78,0.00,,SKC,0.00,VWS V14.01,2013-01-19 14:13:00,
2013-01-19 09:18:00,35.6,29.4,30.47,ENE,60,2.0,7.0,78,0.00,,SKC,0.00,VWS V14.01,2013-01-19 14:18:00,
2013-01-19 09:23:00,36.4,30.2,30.47,ENE,61,2.0,7.0,78,0.00,,SKC,0.00,VWS V14.01,2013-01-19 14:23:00,
2013-01-19 09:28:00,37.1,30.6,30.47,ENE,61,2.0,7.0,77,0.00,,SKC,0.00,VWS V14.01,2013-01-19 14:28:00,
2013-01-19 09:33:00,38.0,31.4,30.47,ENE,57,2.0,7.0,77,0.00,,SKC,0.00,VWS V14.01,2013-01-19 14:33:00,
2013-01-19 09:38:00,38.5,31.6,30.47,ENE,58,1.0,7.0,76,0.00,,SKC,0.00,VWS V14.01,2013-01-19 14:38:00,
2013-01-19 09:43:00,39.4,32.2,30.47,East,88,0.0,7.0,75,0.00,,SKC,0.00,VWS V14.01,2013-01-19 14:43:00,
2013-01-19 09:48:00,40.1,32.5,30.47,ENE,65,1.0,7.0,74,0.00,,SKC,0.00,VWS V14.01,2013-01-19 14:48:00,
2013-01-19 09:53:00,40.7,32.7,30.47,ENE,60,1.0,7.0,73,0.00,,SKC,0.00,VWS V14.01,2013-01-19 14:53:00,
2013-01-19 09:58:00,41.3,33.0,30.47,East,94,4.0,7.0,72,0.00,,SKC,0.00,VWS V14.01,2013-01-19 14:58:00,
2013-01-19 10:00:00,48.0,33.1,30.44,East,84,1.0,7.0,56,0.00,,-RA,0.00,VWS V14.01,2013-01-19 15:00:00,
2013-01-19 10:03:00,42.1,33.4,30.47,East,80,2.0,5.0,71,0.00,,SKC,0.00,VWS V14.01,2013-01-19 15:03:00,
2013-01-19 10:08:00,42.9,33.4,30.46,NE,49,2.0,5.0,69,0.00,,SKC,0.00,VWS V14.01,2013-01-19 15:08:00,
2013-01-19 10:13:00,43.3,33.5,30.46,ENE,61,2.0,5.0,68,0.00,,SKC,0.00,VWS V14.01,2013-01-19 15:13:00,
2013-01-19 10:18:00,43.8,34.3,30.46,ENE,71,0.0,7.0,69,0.00,,SKC,0.00,VWS V14.01,2013-01-19 15:18:00,
2013-01-19 10:23:00,44.8,34.2,30.46,NE,38,4.0,7.0,66,0.00,,SKC,0.00,VWS V14.01,2013-01-19 15:23:00,
2013-01-19 10:28:00,45.3,34.2,30.46,ENE,70,3.0,7.0,65,0.00,,SKC,0.00,VWS V14.01,2013-01-19 15:28:00,
2013-01-19 10:33:00,45.5,33.7,30.45,ENE,61,2.0,7.0,63,0.00,,SKC,0.00,VWS V14.01,2013-01-19 15:33:00,
2013-01-19 10:38:00,45.8,33.5,30.45,East,88,3.0,7.0,62,0.00,,SKC,0.00,VWS V14.01,2013-01-19 15:38:00,
2013-01-19 10:43:00,46.3,33.2,30.45,NNE,15,2.0,7.0,60,0.00,,SKC,0.00,VWS V14.01,2013-01-19 15:43:00,
2013-01-19 10:48:00,46.7,33.6,30.45,NE,40,2.0,7.0,60,0.00,,SKC,0.00,VWS V14.01,2013-01-19 15:48:00,
2013-01-19 10:53:00,47.0,33.4,30.45,NE,44,1.0,7.0,59,0.00,,SKC,0.00,VWS V14.01,2013-01-19 15:53:00,
2013-01-19 10:58:00,47.6,32.7,30.45,East,88,0.0,7.0,56,0.00,,SKC,0.00,VWS V14.01,2013-01-19 15:58:00,
2013-01-19 11:00:00,51.3,32.8,30.41,SSE,154,1.0,7.0,49,0.00,,SKC,0.00,VWS V14.01,2013-01-19 16:00:00,
2013-01-19 11:03:00,48.5,33.5,30.45,ENE,66,4.0,4.0,56,0.00,,SKC,0.00,VWS V14.01,2013-01-19 16:03:00,
2013-01-19 11:08:00,48.7,32.8,30.44,ENE,57,3.0,6.0,54,0.00,,SKC,0.00,VWS V14.01,2013-01-19 16:08:00,
2013-01-19 11:13:00,48.6,32.3,30.44,ENE,70,3.0,7.0,53,0.00,,SKC,0.00,VWS V14.01,2013-01-19 16:13:00,
2013-01-19 11:18:00,48.8,33.4,30.44,ENE,69,0.0,7.0,55,0.00,,SKC,0.00,VWS V14.01,2013-01-19 16:18:00,
2013-01-19 11:23:00,49.3,33.4,30.44,SSE,161,2.0,7.0,54,0.00,,SKC,0.00,VWS V14.01,2013-01-19 16:23:00,
2013-01-19 11:28:00,50.3,33.8,30.43,SSE,161,0.0,7.0,53,0.00,,SKC,0.00,VWS V14.01,2013-01-19 16:28:00,
2013-01-19 11:33:00,50.7,33.2,30.43,East,90,4.0,7.0,51,0.00,,SKC,0.00,VWS V14.01,2013-01-19 16:33:00,
2013-01-19 11:38:00,50.4,33.5,30.43,NE,43,1.0,7.0,52,0.00,,SKC,0.00,VWS V14.01,2013-01-19 16:38:00,
2013-01-19 11:43:00,50.7,33.7,30.42,East,81,3.0,7.0,52,0.00,,SKC,0.00,VWS V14.01,2013-01-19 16:43:00,
2013-01-19 11:48:00,50.5,32.1,30.42,NE,49,2.0,7.0,49,0.00,,SKC,0.00,VWS V14.01,2013-01-19 16:48:00,
2013-01-19 11:53:00,50.9,33.4,30.41,East,88,4.0,7.0,51,0.00,,SKC,0.00,VWS V14.01,2013-01-19 16:53:00,
2013-01-19 11:58:00,51.1,33.6,30.41,ENE,78,3.0,7.0,51,0.00,,SKC,0.00,VWS V14.01,2013-01-19 16:58:00,
2013-01-19 12:00:00,54.8,33.9,30.35,SE,146,2.0,6.0,45,0.00,,SKC,0.00,VWS V14.01,2013-01-19 17:00:00,
2013-01-19 12:03:00,51.4,33.4,30.41,SE,144,1.0,4.0,50,0.00,,SKC,0.00,VWS V14.01,2013-01-19 17:03:00,
2013-01-19 12:08:00,51.6,33.1,30.40,SE,143,3.0,6.0,49,0.00,,SKC,0.00,VWS V14.01,2013-01-19 17:08:00,
2013-01-19 12:13:00,51.4,32.9,30.40,East,86,0.0,6.0,49,0.00,,SKC,0.00,VWS V14.01,2013-01-19 17:13:00,
2013-01-19 12:18:00,52.1,33.5,30.39,SW,236,3.0,6.0,49,0.00,,SKC,0.00,VWS V14.01,2013-01-19 17:18:00,
2013-01-19 12:23:00,52.3,32.2,30.39,SSW,209,5.0,6.0,46,0.00,,SKC,0.00,VWS V14.01,2013-01-19 17:23:00,
2013-01-19 12:28:00,52.3,31.6,30.38,SSW,199,0.0,6.0,45,0.00,,SKC,0.00,VWS V14.01,2013-01-19 17:28:00,
2013-01-19 12:33:00,52.8,32.1,30.38,SSW,199,0.0,6.0,45,0.00,,SKC,0.00,VWS V14.01,2013-01-19 17:33:00,
2013-01-19 12:38:00,53.1,32.9,30.37,West,270,0.0,6.0,46,0.00,,SKC,0.00,VWS V14.01,2013-01-19 17:38:00,
2013-01-19 12:43:00,53.4,32.6,30.37,SSW,194,0.0,6.0,45,0.00,,SKC,0.00,VWS V14.01,2013-01-19 17:43:00,
2013-01-19 12:48:00,53.4,33.2,30.36,ENE,76,0.0,6.0,46,0.00,,SKC,0.00,VWS V14.01,2013-01-19 17:48:00,
2013-01-19 12:53:00,54.1,33.2,30.36,SSW,209,1.0,6.0,45,0.00,,SKC,0.00,VWS V14.01,2013-01-19 17:53:00,
2013-01-19 12:58:00,54.7,33.8,30.36,WSW,245,0.0,6.0,45,0.00,,SKC,0.00,VWS V14.01,2013-01-19 17:58:00,
2013-01-19 13:00:00,57.1,35.4,30.31,South,169,0.0,9.0,44,0.00,,SKC,0.00,VWS V14.01,2013-01-19 18:00:00,
2013-01-19 13:03:00,54.5,33.0,30.35,SE,130,4.0,6.0,44,0.00,,SKC,0.00,VWS V14.01,2013-01-19 18:03:00,
2013-01-19 13:08:00,54.4,33.5,30.35,SSW,213,2.0,9.0,45,0.00,,SKC,0.00,VWS V14.01,2013-01-19 18:08:00,
2013-01-19 13:13:00,54.8,33.3,30.34,SW,219,0.0,9.0,44,0.00,,SKC,0.00,VWS V14.01,2013-01-19 18:13:00,
2013-01-19 13:18:00,55.1,33.6,30.34,SE,132,0.0,9.0,44,0.00,,SKC,0.00,VWS V14.01,2013-01-19 18:18:00,
2013-01-19 13:23:00,55.6,33.5,30.33,West,259,2.0,9.0,43,0.00,,SKC,0.00,VWS V14.01,2013-01-19 18:23:00,
2013-01-19 13:28:00,55.9,34.3,30.33,NE,50,1.0,9.0,44,0.00,,SKC,0.00,VWS V14.01,2013-01-19 18:28:00,
2013-01-19 13:33:00,56.2,34.0,30.33,NE,50,0.0,9.0,43,0.00,,SKC,0.00,VWS V14.01,2013-01-19 18:33:00,
2013-01-19 13:38:00,56.7,35.6,30.32,WSW,238,2.0,9.0,45,0.00,,SKC,0.00,VWS V14.01,2013-01-19 18:38:00,
2013-01-19 13:43:00,57.0,35.3,30.32,WSW,239,0.0,9.0,44,0.00,,SKC,0.00,VWS V14.01,2013-01-19 18:43:00,
2013-01-19 13:48:00,56.7,35.0,30.32,ESE,103,3.0,9.0,44,0.00,,SKC,0.00,VWS V14.01,2013-01-19 18:48:00,
2013-01-19 13:53:00,56.7,35.6,30.31,South,179,1.0,9.0,45,0.00,,SKC,0.00,VWS V14.01,2013-01-19 18:53:00,
2013-01-19 13:58:00,56.8,35.1,30.31,South,169,0.0,9.0,44,0.00,,SKC,0.00,VWS V14.01,2013-01-19 18:58:00,
2013-01-19 14:00:00,59.0,39.4,30.28,West,267,1.0,10.0,48,0.00,,SKC,0.00,VWS V14.01,2013-01-19 19:00:00,
2013-01-19 14:03:00,57.4,35.7,30.30,South,169,0.0,1.0,44,0.00,,SKC,0.00,VWS V14.01,2013-01-19 19:03:00,
2013-01-19 14:08:00,58.2,37.0,30.30,West,263,4.0,9.0,45,0.00,,SKC,0.00,VWS V14.01,2013-01-19 19:08:00,
2013-01-19 14:13:00,58.2,37.0,30.30,West,268,0.0,9.0,45,0.00,,SKC,0.00,VWS V14.01,2013-01-19 19:13:00,
2013-01-19 14:18:00,58.6,37.3,30.30,WSW,244,0.0,9.0,45,0.00,,SKC,0.00,VWS V14.01,2013-01-19 19:18:00,
2013-01-19 14:23:00,58.6,36.8,30.29,WSW,254,0.0,9.0,44,0.00,,SKC,0.00,VWS V14.01,2013-01-19 19:23:00,
2013-01-19 14:28:00,59.0,38.3,30.29,WSW,239,7.0,9.0,46,0.00,,SKC,0.00,VWS V14.01,2013-01-19 19:28:00,
2013-01-19 14:33:00,59.0,37.7,30.29,WNW,292,0.0,9.0,45,0.00,,SKC,0.00,VWS V14.01,2013-01-19 19:33:00,
2013-01-19 14:38:00,58.4,37.7,30.29,WSW,244,4.0,9.0,46,0.00,,SKC,0.00,VWS V14.01,2013-01-19 19:38:00,
2013-01-19 14:43:00,58.3,38.2,30.29,West,273,3.0,9.0,47,0.00,,SKC,0.00,VWS V14.01,2013-01-19 19:43:00,
2013-01-19 14:48:00,58.6,38.5,30.28,West,270,6.0,10.0,47,0.00,,SKC,0.00,VWS V14.01,2013-01-19 19:48:00,
2013-01-19 14:53:00,58.7,39.1,30.28,WSW,244,5.0,10.0,48,0.00,,SKC,0.00,VWS V14.01,2013-01-19 19:53:00,
2013-01-19 14:58:00,59.0,39.9,30.28,West,259,4.0,10.0,49,0.00,,SKC,0.00,VWS V14.01,2013-01-19 19:58:00,
2013-01-19 15:00:00,58.0,40.5,30.27,WNW,295,7.0,13.0,52,0.00,,SKC,0.00,VWS V14.01,2013-01-19 20:00:00,
2013-01-19 15:03:00,59.0,39.4,30.28,WSW,239,2.0,7.0,48,0.00,,SKC,0.00,VWS V14.01,2013-01-19 20:03:00,
2013-01-19 15:08:00,59.2,40.1,30.28,SW,215,3.0,10.0,49,0.00,,SKC,0.00,VWS V14.01,2013-01-19 20:08:00,
2013-01-19 15:13:00,59.4,40.2,30.28,West,259,4.0,10.0,49,0.00,,SKC,0.00,VWS V14.01,2013-01-19 20:13:00,
2013-01-19 15:18:00,59.1,40.0,30.28,West,265,6.0,10.0,49,0.00,,SKC,0.00,VWS V14.01,2013-01-19 20:18:00,
2013-01-19 15:23:00,59.0,39.9,30.28,SSW,207,6.0,10.0,49,0.00,,SKC,0.00,VWS V14.01,2013-01-19 20:23:00,
2013-01-19 15:28:00,59.0,39.9,30.28,West,268,5.0,10.0,49,0.00,,SKC,0.00,VWS V14.01,2013-01-19 20:28:00,
2013-01-19 15:33:00,59.0,39.9,30.27,WSW,244,6.0,12.0,49,0.00,,SKC,0.00,VWS V14.01,2013-01-19 20:33:00,
2013-01-19 15:38:00,58.8,40.2,30.27,West,270,12.0,13.0,50,0.00,,SKC,0.00,VWS V14.01,2013-01-19 20:38:00,
2013-01-19 15:43:00,58.4,40.4,30.27,West,270,5.0,13.0,51,0.00,,SKC,0.00,VWS V14.01,2013-01-19 20:43:00,
2013-01-19 15:48:00,58.2,40.7,30.27,WSW,246,3.0,13.0,52,0.00,,SKC,0.00,VWS V14.01,2013-01-19 20:48:00,
2013-01-19 15:53:00,57.9,40.4,30.27,West,269,7.0,13.0,52,0.00,,SKC,0.00,VWS V14.01,2013-01-19 20:53:00,
2013-01-19 15:58:00,58.0,41.0,30.27,WNW,294,6.0,13.0,53,0.00,,SKC,0.00,VWS V14.01,2013-01-19 20:58:00,
2013-01-19 16:00:00,56.2,39.3,30.27,WNW,290,1.0,10.0,53,0.00,,SKC,0.00,VWS V14.01,2013-01-19 21:00:00,
2013-01-19 16:03:00,57.8,40.3,30.27,WNW,302,6.0,9.0,52,0.00,,SKC,0.00,VWS V14.01,2013-01-19 21:03:00,
2013-01-19 16:08:00,57.5,40.0,30.27,WNW,294,7.0,10.0,52,0.00,,SKC,0.00,VWS V14.01,2013-01-19 21:08:00,
2013-01-19 16:13:00,57.6,40.6,30.27,West,260,3.0,10.0,53,0.00,,SKC,0.00,VWS V14.01,2013-01-19 21:13:00,
2013-01-19 16:18:00,57.9,40.4,30.27,WSW,238,5.0,10.0,52,0.00,,SKC,0.00,VWS V14.01,2013-01-19 21:18:00,
2013-01-19 16:23:00,57.8,40.8,30.27,NW,310,3.0,10.0,53,0.00,,SKC,0.00,VWS V14.01,2013-01-19 21:23:00,
2013-01-19 16:28:00,57.5,40.0,30.27,WSW,252,4.0,10.0,52,0.00,,SKC,0.00,VWS V14.01,2013-01-19 21:28:00,
2013-01-19 16:33:00,57.2,39.8,30.26,West,279,3.0,10.0,52,0.00,,SKC,0.00,VWS V14.01,2013-01-19 21:33:00,
2013-01-19 16:39:00,57.2,39.8,30.26,WNW,292,2.0,10.0,52,0.00,,SKC,0.00,VWS V14.01,2013-01-19 21:39:00,
2013-01-19 16:43:00,57.2,40.2,30.27,WNW,302,3.0,10.0,53,0.00,,SKC,0.00,VWS V14.01,2013-01-19 21:43:00,
2013-01-19 16:49:00,57.1,40.2,30.26,West,259,2.0,10.0,53,0.00,,SKC,0.00,VWS V14.01,2013-01-19 21:49:00,
2013-01-19 16:54:00,56.7,39.8,30.26,WSW,256,1.0,10.0,53,0.00,,SKC,0.00,VWS V14.01,2013-01-19 21:54:00,
2013-01-19 16:59:00,56.4,39.5,30.26,WNW,294,2.0,10.0,53,0.00,,SKC,0.00,VWS V14.01,2013-01-19 21:59:00,
2013-01-19 17:00:00,53.2,40.1,30.26,WSW,247,0.0,4.0,61,0.00,,SKC,0.00,VWS V14.01,2013-01-19 22:00:00,
2013-01-19 17:04:00,56.0,39.6,30.27,WNW,290,3.0,4.0,54,0.00,,SKC,0.00,VWS V14.01,2013-01-19 22:04:00,
2013-01-19 17:09:00,55.9,40.0,30.27,West,269,0.0,4.0,55,0.00,,SKC,0.00,VWS V14.01,2013-01-19 22:09:00,
2013-01-19 17:14:00,56.0,39.6,30.27,WSW,242,0.0,4.0,54,0.00,,SKC,0.00,VWS V14.01,2013-01-19 22:14:00,
2013-01-19 17:19:00,56.0,39.6,30.27,WNW,284,0.0,4.0,54,0.00,,SKC,0.00,VWS V14.01,2013-01-19 22:19:00,
2013-01-19 17:24:00,55.8,39.9,30.27,WNW,284,0.0,4.0,55,0.00,,SKC,0.00,VWS V14.01,2013-01-19 22:24:00,
2013-01-19 17:29:00,55.5,39.6,30.27,WSW,247,0.0,4.0,55,0.00,,SKC,0.00,VWS V14.01,2013-01-19 22:29:00,
2013-01-19 17:34:00,55.1,39.7,30.26,WSW,247,0.0,4.0,56,0.00,,SKC,0.00,VWS V14.01,2013-01-19 22:34:00,
2013-01-19 17:39:00,54.9,40.0,30.26,WSW,247,0.0,4.0,57,0.00,,SKC,0.00,VWS V14.01,2013-01-19 22:39:00,
2013-01-19 17:44:00,54.6,40.1,30.26,WSW,247,0.0,4.0,58,0.00,,SKC,0.00,VWS V14.01,2013-01-19 22:44:00,
2013-01-19 17:49:00,54.2,39.3,30.26,WSW,247,0.0,4.0,57,0.00,,SKC,0.00,VWS V14.01,2013-01-19 22:49:00,
2013-01-19 17:54:00,53.9,39.5,30.26,WSW,247,0.0,4.0,58,0.00,,SKC,0.00,VWS V14.01,2013-01-19 22:54:00,
2013-01-19 17:59:00,53.5,40.4,30.26,WSW,247,0.0,4.0,61,0.00,,SKC,0.00,VWS V14.01,2013-01-19 22:59:00,
2013-01-19 18:00:00,50.3,39.0,30.26,WSW,247,0.0,1.0,65,0.00,,SKC,0.00,VWS V14.01,2013-01-19 23:00:00,
2013-01-19 18:04:00,52.8,40.2,30.26,WSW,247,0.0,1.0,62,0.00,,SKC,0.00,VWS V14.01,2013-01-19 23:04:00,
2013-01-19 18:09:00,52.3,40.1,30.26,WSW,247,0.0,1.0,63,0.00,,SKC,0.00,VWS V14.01,2013-01-19 23:09:00,
2013-01-19 18:14:00,51.8,39.6,30.26,WSW,247,0.0,1.0,63,0.00,,SKC,0.00,VWS V14.01,2013-01-19 23:14:00,
2013-01-19 18:19:00,51.6,39.4,30.26,WSW,247,0.0,1.0,63,0.00,,SKC,0.00,VWS V14.01,2013-01-19 23:19:00,
2013-01-19 18:24:00,51.4,39.2,30.26,WSW,247,0.0,1.0,63,0.00,,SKC,0.00,VWS V14.01,2013-01-19 23:24:00,
2013-01-19 18:29:00,51.3,40.0,30.26,WSW,247,0.0,1.0,65,0.00,,SKC,0.00,VWS V14.01,2013-01-19 23:29:00,
2013-01-19 18:34:00,51.1,39.8,30.26,WSW,247,0.0,1.0,65,0.00,,SKC,0.00,VWS V14.01,2013-01-19 23:34:00,
2013-01-19 18:39:00,50.9,39.6,30.26,WSW,247,0.0,1.0,65,0.00,,SKC,0.00,VWS V14.01,2013-01-19 23:39:00,
2013-01-19 18:44:00,50.5,39.6,30.26,WSW,247,0.0,1.0,66,0.00,,SKC,0.00,VWS V14.01,2013-01-19 23:44:00,
2013-01-19 18:49:00,50.2,39.7,30.26,WSW,247,0.0,1.0,67,0.00,,SKC,0.00,VWS V14.01,2013-01-19 23:49:00,
2013-01-19 18:54:00,50.3,39.4,30.26,WSW,247,0.0,1.0,66,0.00,,SKC,0.00,VWS V14.01,2013-01-19 23:54:00,
2013-01-19 18:59:00,50.3,39.0,30.26,WSW,247,0.0,1.0,65,0.00,,SKC,0.00,VWS V14.01,2013-01-19 23:59:00,
2013-01-19 19:00:00,48.1,39.5,30.27,WSW,247,0.0,1.0,72,0.00,,SKC,0.00,VWS V14.01,2013-01-20 00:00:00,
2013-01-19 19:04:00,50.3,39.0,30.26,WSW,247,0.0,0.0,65,0.00,,SKC,0.00,VWS V14.01,2013-01-20 00:04:00,
2013-01-19 19:09:00,50.2,38.9,30.26,WSW,247,0.0,0.0,65,0.00,,SKC,0.00,VWS V14.01,2013-01-20 00:09:00,
2013-01-19 19:14:00,50.1,38.8,30.27,WSW,247,0.0,1.0,65,0.00,,SKC,0.00,VWS V14.01,2013-01-20 00:14:00,
2013-01-19 19:19:00,50.1,38.8,30.27,WSW,247,0.0,1.0,65,0.00,,SKC,0.00,VWS V14.01,2013-01-20 00:19:00,
2013-01-19 19:24:00,49.7,38.8,30.27,WSW,247,0.0,1.0,66,0.00,,SKC,0.00,VWS V14.01,2013-01-20 00:24:00,
2013-01-19 19:29:00,49.4,38.9,30.27,WSW,247,0.0,1.0,67,0.00,,SKC,0.00,VWS V14.01,2013-01-20 00:29:00,
2013-01-19 19:34:00,49.3,39.2,30.27,WSW,247,0.0,1.0,68,0.00,,SKC,0.00,VWS V14.01,2013-01-20 00:34:00,
2013-01-19 19:39:00,48.9,39.6,30.27,WSW,247,0.0,1.0,70,0.00,,SKC,0.00,VWS V14.01,2013-01-20 00:39:00,
2013-01-19 19:44:00,48.5,39.5,30.27,WSW,247,0.0,1.0,71,0.00,,SKC,0.00,VWS V14.01,2013-01-20 00:44:00,
2013-01-19 19:48:00,48.0,39.4,30.27,WSW,247,0.0,1.0,72,0.00,,SKC,0.00,VWS V14.01,2013-01-20 00:48:00,
2013-01-19 19:53:00,47.7,39.5,30.27,WSW,247,0.0,1.0,73,0.00,,SKC,0.00,VWS V14.01,2013-01-20 00:53:00,
2013-01-19 19:58:00,47.8,39.2,30.27,WSW,247,0.0,1.0,72,0.00,,SKC,0.00,VWS V14.01,2013-01-20 00:58:00,
2013-01-19 20:00:00,46.2,38.4,30.27,WSW,247,0.0,2.0,74,0.00,,-RA,0.00,VWS V14.01,2013-01-20 01:00:00,
2013-01-19 20:03:00,48.3,39.3,30.27,WSW,247,0.0,1.0,71,0.00,,SKC,0.00,VWS V14.01,2013-01-20 01:03:00,
2013-01-19 20:09:00,48.8,39.8,30.27,WSW,247,0.0,1.0,71,0.00,,SKC,0.00,VWS V14.01,2013-01-20 01:09:00,
2013-01-19 20:13:00,48.8,39.8,30.27,WSW,247,0.0,2.0,71,0.00,,SKC,0.00,VWS V14.01,2013-01-20 01:13:00,
2013-01-19 20:18:00,48.5,39.9,30.27,WSW,247,0.0,2.0,72,0.00,,SKC,0.00,VWS V14.01,2013-01-20 01:18:00,
2013-01-19 20:23:00,48.3,39.7,30.27,WSW,247,0.0,2.0,72,0.00,,SKC,0.00,VWS V14.01,2013-01-20 01:23:00,
2013-01-19 20:28:00,47.9,39.3,30.27,WSW,247,0.0,2.0,72,0.00,,SKC,0.00,VWS V14.01,2013-01-20 01:28:00,
2013-01-19 20:33:00,47.9,39.0,30.27,WSW,247,0.0,2.0,71,0.00,,SKC,0.00,VWS V14.01,2013-01-20 01:33:00,
2013-01-19 20:38:00,47.9,39.3,30.27,WSW,247,0.0,2.0,72,0.00,,SKC,0.00,VWS V14.01,2013-01-20 01:38:00,
2013-01-19 20:43:00,47.4,39.5,30.27,WSW,247,0.0,2.0,74,0.00,,SKC,0.00,VWS V14.01,2013-01-20 01:43:00,
2013-01-19 20:48:00,46.8,39.0,30.27,WSW,247,0.0,2.0,74,0.00,,SKC,0.00,VWS V14.01,2013-01-20 01:48:00,
2013-01-19 20:53:00,46.6,38.8,30.27,WSW,247,0.0,2.0,74,0.00,,SKC,0.00,VWS V14.01,2013-01-20 01:53:00,
2013-01-19 20:58:00,46.3,38.8,30.27,WSW,247,0.0,2.0,75,0.00,,SKC,0.00,VWS V14.01,2013-01-20 01:58:00,
2013-01-19 21:00:00,44.7,38.3,30.25,SSW,194,0.0,3.0,78,0.00,,SKC,0.00,VWS V14.01,2013-01-20 02:00:00,
2013-01-19 21:03:00,46.1,38.6,30.26,WSW,247,0.0,0.0,75,0.00,,SKC,0.00,VWS V14.01,2013-01-20 02:03:00,
2013-01-19 21:08:00,45.7,38.6,30.26,WSW,247,0.0,0.0,76,0.00,,SKC,0.00,VWS V14.01,2013-01-20 02:08:00,
2013-01-19 21:13:00,45.1,38.3,30.26,WSW,247,0.0,1.0,77,0.00,,SKC,0.00,VWS V14.01,2013-01-20 02:13:00,
2013-01-19 21:18:00,45.4,38.3,30.26,WSW,247,0.0,1.0,76,0.00,,SKC,0.00,VWS V14.01,2013-01-20 02:18:00,
2013-01-19 21:23:00,46.5,38.7,30.26,WSW,247,0.0,1.0,74,0.00,,SKC,0.00,VWS V14.01,2013-01-20 02:23:00,
2013-01-19 21:28:00,47.4,38.8,30.26,WSW,247,1.0,3.0,72,0.00,,SKC,0.00,VWS V14.01,2013-01-20 02:28:00,
2013-01-19 21:33:00,47.8,38.9,30.25,WSW,247,1.0,3.0,71,0.00,,SKC,0.00,VWS V14.01,2013-01-20 02:33:00,
2013-01-19 21:38:00,47.7,38.8,30.25,WSW,247,0.0,3.0,71,0.00,,SKC,0.00,VWS V14.01,2013-01-20 02:38:00,
2013-01-19 21:43:00,47.9,39.0,30.25,SSW,194,0.0,3.0,71,0.00,,SKC,0.00,VWS V14.01,2013-01-20 02:43:00,
2013-01-19 21:48:00,47.4,38.8,30.26,SSW,194,0.0,3.0,72,0.00,,SKC,0.00,VWS V14.01,2013-01-20 02:48:00,
2013-01-19 21:53:00,46.1,38.6,30.26,SSW,194,0.0,3.0,75,0.00,,SKC,0.00,VWS V14.01,2013-01-20 02:53:00,
2013-01-19 21:58:00,45.1,38.3,30.26,SSW,194,0.0,3.0,77,0.00,,SKC,0.00,VWS V14.01,2013-01-20 02:58:00,
2013-01-19 22:00:00,44.6,38.8,30.24,SSW,194,0.0,3.0,80,0.00,,SKC,0.00,VWS V14.01,2013-01-20 03:00:00,
2013-01-19 22:03:00,44.1,38.0,30.25,SSW,194,0.0,1.0,79,0.00,,SKC,0.00,VWS V14.01,2013-01-20 03:03:00,
2013-01-19 22:08:00,43.6,37.8,30.25,SSW,194,0.0,1.0,80,0.00,,SKC,0.00,VWS V14.01,2013-01-20 03:08:00,
2013-01-19 22:13:00,43.2,37.8,30.25,SSW,194,0.0,1.0,81,0.00,,SKC,0.00,VWS V14.01,2013-01-20 03:13:00,
2013-01-19 22:18:00,43.2,38.4,30.25,SSW,194,0.0,1.0,83,0.00,,SKC,0.00,VWS V14.01,2013-01-20 03:18:00,
2013-01-19 22:23:00,43.6,38.5,30.25,SSW,194,0.0,1.0,82,0.00,,SKC,0.00,VWS V14.01,2013-01-20 03:23:00,
2013-01-19 22:28:00,44.1,38.7,30.25,SSW,194,0.0,3.0,81,0.00,,SKC,0.00,VWS V14.01,2013-01-20 03:28:00,
2013-01-19 22:33:00,44.1,38.7,30.25,SSW,194,1.0,3.0,81,0.00,,SKC,0.00,VWS V14.01,2013-01-20 03:33:00,
2013-01-19 22:38:00,43.9,38.5,30.25,SSW,194,0.0,3.0,81,0.00,,SKC,0.00,VWS V14.01,2013-01-20 03:38:00,
2013-01-19 22:43:00,43.8,38.4,30.24,SSW,194,0.0,3.0,81,0.00,,SKC,0.00,VWS V14.01,2013-01-20 03:43:00,
2013-01-19 22:48:00,44.0,38.5,30.25,SSW,194,1.0,3.0,81,0.00,,SKC,0.00,VWS V14.01,2013-01-20 03:48:00,
2013-01-19 22:53:00,44.6,38.8,30.24,SSW,194,0.0,3.0,80,0.00,,SKC,0.00,VWS V14.01,2013-01-20 03:53:00,
2013-01-19 22:58:00,44.8,39.0,30.24,SSW,194,0.0,3.0,80,0.00,,SKC,0.00,VWS V14.01,2013-01-20 03:58:00,
2013-01-19 23:00:00,43.6,38.5,30.21,SSW,198,0.0,3.0,82,0.00,,SKC,0.00,VWS V14.01,2013-01-20 04:00:00,
2013-01-19 23:03:00,44.6,38.8,30.23,SSW,194,0.0,1.0,80,0.00,,SKC,0.00,VWS V14.01,2013-01-20 04:03:00,
2013-01-19 23:08:00,44.4,38.6,30.23,SSW,194,0.0,3.0,80,0.00,,SKC,0.00,VWS V14.01,2013-01-20 04:08:00,
2013-01-19 23:13:00,44.2,38.4,30.23,SSW,194,0.0,3.0,80,0.00,,SKC,0.00,VWS V14.01,2013-01-20 04:13:00,
2013-01-19 23:18:00,44.3,38.5,30.23,SSW,194,0.0,3.0,80,0.00,,SKC,0.00,VWS V14.01,2013-01-20 04:18:00,
2013-01-19 23:23:00,44.5,38.7,30.23,SSW,194,0.0,3.0,80,0.00,,SKC,0.00,VWS V14.01,2013-01-20 04:23:00,
2013-01-19 23:28:00,44.5,38.7,30.22,SSW,194,0.0,3.0,80,0.00,,SKC,0.00,VWS V14.01,2013-01-20 04:28:00,
2013-01-19 23:33:00,44.3,38.5,30.22,SSW,194,0.0,3.0,80,0.00,,SKC,0.00,VWS V14.01,2013-01-20 04:33:00,
2013-01-19 23:38:00,43.9,38.5,30.22,SSW,194,2.0,3.0,81,0.00,,SKC,0.00,VWS V14.01,2013-01-20 04:38:00,
2013-01-19 23:43:00,43.6,38.2,30.22,South,173,1.0,3.0,81,0.00,,SKC,0.00,VWS V14.01,2013-01-20 04:43:00,
2013-01-19 23:48:00,43.4,38.3,30.21,South,184,0.0,3.0,82,0.00,,SKC,0.00,VWS V14.01,2013-01-20 04:48:00,
2013-01-19 23:53:00,43.4,38.3,30.22,South,184,0.0,3.0,82,0.00,,SKC,0.00,VWS V14.01,2013-01-20 04:53:00,
2013-01-19 23:58:00,43.5,38.4,30.21,SSW,198,0.0,3.0,82,0.00,,SKC,0.00,VWS V14.01,2013-01-20 04:58:00,